Time;durP1;ratioP1;P1;durP2;ratioP2;P2;SDS_P1;SDS_P2;PMS_P1;PMS_P2;Temp;Humidity;BMP_temperature;BMP_pressure;BME280_temperature;BME280_humidity;BME280_pressure;Samples;Min_cycle;Max_cycle;Signal;HPM_P1;HPM_P2
2022/08/05 00:01:43;;;;;;;18.23;9.70;;;;;;;16.43;83.20;99073.73;3943133;90;22284;-87
2022/08/05 00:07:51;;;;;;;12.68;8.35;;;;;;;16.48;84.25;99062.27;3910241;90;21596;-87
2022/08/05 00:13:57;;;;;;;12.20;8.20;;;;;;;16.67;84.66;99059.47;3973785;90;21538;-87
2022/08/05 00:20:03;;;;;;;9.97;7.17;;;;;;;16.68;84.16;99056.87;3912652;90;22011;-87
2022/08/05 00:26:39;;;;;;;8.55;7.00;;;;;;;16.68;84.21;99059.64;3912267;90;21048;-87
2022/08/05 00:39:45;;;;;;;11.75;7.60;;;;;;;16.64;84.99;99058.33;3916961;90;21016;-87
2022/08/05 00:45:47;;;;;;;10.23;6.12;;;;;;;16.46;85.28;99052.83;3943924;90;21047;-87
2022/08/05 00:51:53;;;;;;;9.60;5.90;;;;;;;16.36;85.67;99048.96;3937007;90;21109;-87
2022/08/05 00:57:54;;;;;;;9.25;6.08;;;;;;;16.46;86.64;99046.69;3932630;90;21244;-87
2022/08/05 01:03:55;;;;;;;7.45;6.22;;;;;;;16.46;86.16;99041.16;3945649;90;21725;-86
2022/08/05 01:09:57;;;;;;;9.10;5.85;;;;;;;16.36;86.35;99031.59;3914782;90;21064;-87
2022/08/05 01:16:02;;;;;;;13.15;5.53;;;;;;;16.42;87.03;99029.94;3966938;90;21114;-87
2022/08/05 01:22:15;;;;;;;6.20;5.50;;;;;;;16.48;86.84;99026.34;3916758;90;21093;-86
2022/08/05 01:28:25;;;;;;;9.95;5.78;;;;;;;16.44;86.96;99021.47;3942230;90;21144;-87
2022/08/05 01:34:41;;;;;;;8.10;6.62;;;;;;;16.45;87.36;99026.37;3941323;90;21179;-87
2022/08/05 01:40:47;;;;;;;9.00;6.60;;;;;;;16.29;87.03;99015.08;3926453;88;21676;-87
2022/08/05 01:47:08;;;;;;;7.78;5.75;;;;;;;16.36;87.84;99016.40;3909462;90;21068;-87
2022/08/05 01:53:24;;;;;;;10.85;6.83;;;;;;;16.21;86.94;99006.72;3915052;90;21549;-86
2022/08/05 01:59:27;;;;;;;7.87;7.08;;;;;;;15.99;87.31;99004.00;3947048;90;21144;-86
2022/08/05 02:05:33;;;;;;;9.28;5.87;;;;;;;16.05;88.01;98996.83;3913798;90;21160;-87
2022/08/05 02:12:03;;;;;;;9.03;6.85;;;;;;;16.09;88.15;98997.56;3917765;90;21095;-86
2022/08/05 02:18:21;;;;;;;7.97;5.70;;;;;;;15.97;88.27;98996.71;3903330;89;21105;-86
2022/08/05 02:24:33;;;;;;;8.38;6.75;;;;;;;15.90;88.68;98989.88;3901030;90;21136;-86
2022/08/05 02:30:40;;;;;;;10.40;6.10;;;;;;;15.83;89.11;98989.38;3917392;90;21078;-87
2022/08/05 02:37:08;;;;;;;8.70;5.80;;;;;;;15.80;89.27;98989.40;3916433;90;21712;-86
2022/08/05 02:43:17;;;;;;;10.60;6.95;;;;;;;15.85;89.43;98998.62;3927065;90;21603;-86
2022/08/05 02:49:32;;;;;;;11.22;6.80;;;;;;;15.71;89.00;98995.37;3912782;90;21079;-86
2022/08/05 03:02:02;;;;;;;9.98;6.90;;;;;;;15.40;89.67;98992.31;3874079;90;21111;-86
2022/08/05 03:08:11;;;;;;;14.53;8.08;;;;;;;15.28;89.92;98984.51;3845401;91;21069;-87
2022/08/05 03:14:13;;;;;;;13.32;8.88;;;;;;;15.17;90.22;98982.42;3851072;91;21086;-86
2022/08/05 03:20:14;;;;;;;8.43;7.45;;;;;;;15.10;90.50;98985.22;3859373;91;21048;-87
2022/08/05 03:26:15;;;;;;;10.63;8.45;;;;;;;15.07;91.04;98976.38;3864231;91;21061;-87
2022/08/05 03:32:26;;;;;;;12.70;9.55;;;;;;;15.03;91.25;98970.92;3878767;91;21195;-86
2022/08/05 03:38:41;;;;;;;10.78;8.90;;;;;;;14.99;91.27;98983.92;3867636;91;21736;-87
2022/08/05 03:44:43;;;;;;;12.88;9.13;;;;;;;14.94;91.58;98980.21;3853951;91;21108;-86
2022/08/05 03:51:18;;;;;;;12.93;9.93;;;;;;;14.91;91.95;98976.12;3848759;90;36831;-86
2022/08/05 03:57:31;;;;;;;10.13;7.83;;;;;;;14.91;92.31;98978.27;3926303;88;21045;-86
2022/08/05 04:03:46;;;;;;;12.13;6.62;;;;;;;14.98;93.02;98982.95;3849258;90;21159;-86
2022/08/05 04:09:51;;;;;;;13.48;7.90;;;;;;;15.22;93.40;98980.00;3886533;90;21159;-86
2022/08/05 04:15:53;;;;;;;9.40;7.20;;;;;;;15.46;93.20;98974.92;3851467;90;21165;-85
2022/08/05 04:21:54;;;;;;;14.10;7.97;;;;;;;15.48;92.87;98974.52;3856915;90;21924;-86
2022/08/05 04:27:55;;;;;;;11.65;8.60;;;;;;;15.52;93.27;98974.67;3890965;88;21036;-86
2022/08/05 04:34:01;;;;;;;10.32;8.00;;;;;;;15.55;93.57;98967.56;3902245;90;21513;-86
2022/08/05 04:40:05;;;;;;;10.28;7.35;;;;;;;15.74;93.89;98973.86;3905946;88;21113;-87
2022/08/05 04:46:07;;;;;;;8.48;7.20;;;;;;;15.96;93.81;98979.97;3938255;88;21052;-87
2022/08/05 04:52:08;;;;;;;10.70;8.20;;;;;;;16.13;93.80;98985.89;3922713;88;21052;-86
2022/08/05 05:04:38;;;;;;;14.03;9.48;;;;;;;16.33;93.80;98966.13;3890358;91;21049;-86
2022/08/05 05:10:45;;;;;;;12.35;8.05;;;;;;;16.44;94.02;98962.63;3836098;90;21030;-86
2022/08/05 05:17:00;;;;;;;12.40;8.35;;;;;;;16.60;93.80;98964.23;3863806;90;21065;-86
2022/08/05 05:23:16;;;;;;;12.73;9.05;;;;;;;16.75;93.76;98965.00;3834951;90;21073;-86
2022/08/05 05:29:17;;;;;;;12.43;8.93;;;;;;;16.89;93.91;98966.77;3835005;90;21050;-86
2022/08/05 05:35:21;;;;;;;14.70;9.20;;;;;;;17.01;94.09;98960.65;3860124;90;21665;-87
2022/08/05 05:41:22;;;;;;;12.58;8.25;;;;;;;17.20;93.79;98973.80;3886225;91;21049;-86
2022/08/05 05:47:23;;;;;;;14.83;8.80;;;;;;;17.43;94.11;98975.19;3850996;90;21649;-86
2022/08/05 05:53:32;;;;;;;10.68;7.95;;;;;;;17.66;93.99;98974.44;3846743;90;22005;-86
2022/08/05 05:59:34;;;;;;;11.10;8.45;;;;;;;17.89;93.74;98974.41;3853816;90;21518;-86
2022/08/05 06:05:53;;;;;;;10.60;8.08;;;;;;;18.16;93.54;98977.86;3869369;90;21172;-87
2022/08/05 06:11:55;;;;;;;12.03;8.13;;;;;;;18.40;93.28;98973.22;3796136;92;21171;-87
2022/08/05 06:18:00;;;;;;;9.95;8.15;;;;;;;18.66;92.86;98969.52;3765681;92;21591;-87
2022/08/05 06:24:05;;;;;;;7.72;6.03;;;;;;;18.95;92.72;98977.20;3796826;92;21572;-86
2022/08/05 06:43:20;;;;;;;9.13;6.55;;;;;;;20.08;91.53;98971.17;3802276;94;21012;-87
2022/08/05 06:49:36;;;;;;;9.70;6.92;;;;;;;20.43;90.96;98972.21;3802337;93;21096;-87
2022/08/05 06:55:42;;;;;;;9.27;6.03;;;;;;;20.71;89.86;98970.59;3775534;92;21069;-87
2022/08/05 07:01:46;;;;;;;9.47;6.23;;;;;;;21.03;89.31;98967.66;3849840;92;21070;-87
2022/08/05 07:07:48;;;;;;;9.08;5.62;;;;;;;21.44;88.81;98959.13;3847379;91;21042;-86
2022/08/05 07:20:50;;;;;;;9.28;5.05;;;;;;;22.14;86.46;98960.13;3868936;89;21543;-87
2022/08/05 07:26:54;;;;;;;8.93;5.87;;;;;;;22.45;85.62;98956.79;3757971;91;21125;-87
2022/08/05 07:33:06;;;;;;;7.20;5.35;;;;;;;22.72;84.82;98956.99;3915081;89;21987;-87
2022/08/05 07:39:08;;;;;;;7.37;5.95;;;;;;;23.08;84.21;98953.73;3870736;92;21145;-88
2022/08/05 07:45:33;;;;;;;11.50;5.45;;;;;;;23.48;83.22;98955.13;3932095;90;21151;-88
2022/08/05 07:51:48;;;;;;;6.80;4.90;;;;;;;23.98;82.58;98961.59;3869101;90;21102;-88
2022/08/05 07:58:00;;;;;;;7.95;5.30;;;;;;;24.64;81.56;98958.42;3936982;88;21477;-88
2022/08/05 08:04:01;;;;;;;8.90;5.08;;;;;;;25.25;80.33;98941.73;3930435;88;21128;-88
2022/08/05 08:10:04;;;;;;;9.50;5.67;;;;;;;25.98;78.69;98947.81;3942523;88;21108;-87
2022/08/05 08:16:07;;;;;;;7.22;5.25;;;;;;;26.33;77.71;98951.47;3933507;88;21693;-88
2022/08/05 08:22:10;;;;;;;5.72;4.55;;;;;;;26.56;76.33;98949.95;3939413;88;22046;-87
2022/08/05 08:28:11;;;;;;;8.18;5.65;;;;;;;26.88;75.46;98947.63;3949882;88;21227;-88
2022/08/05 08:34:13;;;;;;;11.97;5.28;;;;;;;27.11;74.40;98949.52;3936425;88;21095;-87
2022/08/05 08:40:15;;;;;;;9.48;5.08;;;;;;;27.39;73.04;98958.41;3952389;88;21060;-88
2022/08/05 08:46:20;;;;;;;9.83;4.53;;;;;;;27.56;71.76;98953.14;3953287;90;21483;-87
2022/08/05 08:58:43;;;;;;;5.42;4.72;;;;;;;27.68;69.64;98949.08;3894328;90;21544;-87
2022/08/05 09:04:46;;;;;;;6.45;4.67;;;;;;;27.69;67.73;98945.77;3913287;88;21048;-87
2022/08/05 09:10:50;;;;;;;5.53;4.20;;;;;;;27.81;67.58;98946.70;3936948;88;21691;-88
2022/08/05 09:16:51;;;;;;;5.25;4.65;;;;;;;27.94;66.05;98947.16;3941593;88;21939;-88
2022/08/05 09:23:11;;;;;;;5.72;4.37;;;;;;;28.39;65.32;98944.98;3939163;88;21016;-88
2022/08/05 09:29:25;;;;;;;6.67;4.12;;;;;;;28.78;64.17;98943.33;3941201;88;21103;-88
2022/08/05 09:35:27;;;;;;;7.85;4.47;;;;;;;29.30;63.23;98940.57;3932045;88;21116;-88
2022/08/05 09:41:28;;;;;;;4.60;3.70;;;;;;;29.90;61.28;98932.30;3931143;88;21107;-87
2022/08/05 09:47:30;;;;;;;4.05;3.65;;;;;;;30.42;59.93;98918.77;3940321;88;22350;-88
2022/08/05 09:53:48;;;;;;;4.50;3.22;;;;;;;31.03;58.31;98913.16;3940718;88;21581;-88
2022/08/05 09:59:51;;;;;;;4.35;3.30;;;;;;;31.61;56.36;98913.45;3935907;88;21036;-88
2022/08/05 10:06:02;;;;;;;3.75;3.15;;;;;;;32.40;54.15;98899.86;3943425;88;21471;-86
2022/08/05 10:12:09;;;;;;;3.22;2.92;;;;;;;32.76;46.84;98903.45;3931448;88;21072;-89
2022/08/05 10:18:18;;;;;;;3.37;3.08;;;;;;;33.20;49.46;98905.24;3934788;88;21624;-87
2022/08/05 10:24:20;;;;;;;3.50;2.98;;;;;;;33.78;48.18;98898.58;3935596;88;21111;-89
2022/08/05 10:30:22;;;;;;;4.55;2.90;;;;;;;33.98;47.82;98904.41;3930870;88;21095;-88
2022/08/05 10:36:24;;;;;;;3.60;2.95;;;;;;;34.09;45.83;98903.62;3937778;88;21037;-86
2022/08/05 10:42:28;;;;;;;4.20;2.90;;;;;;;34.37;45.03;98889.00;3962000;90;21044;-87
2022/08/05 10:48:39;;;;;;;7.13;2.67;;;;;;;34.71;44.14;98892.88;3911000;90;21136;-88
2022/08/05 10:55:04;;;;;;;4.62;2.47;;;;;;;34.80;42.77;98886.77;3856155;90;21091;-88
2022/08/05 11:01:15;;;;;;;3.87;2.35;;;;;;;34.86;41.60;98879.69;3744115;93;21060;-88
2022/08/05 11:07:17;;;;;;;3.12;2.83;;;;;;;34.87;40.22;98876.20;3771477;92;21020;-88
2022/08/05 11:13:39;;;;;;;4.03;2.42;;;;;;;34.94;38.96;98868.49;3774761;92;21080;-89
2022/08/05 11:19:45;;;;;;;3.85;2.77;;;;;;;35.33;38.10;98867.77;3795639;92;21156;-89
2022/08/05 11:26:18;;;;;;;3.40;2.58;;;;;;;35.77;37.41;98859.77;3790640;92;21717;-88
2022/08/05 11:32:28;;;;;;;2.92;2.60;;;;;;;36.14;36.57;98855.22;3769926;92;21615;-89
2022/08/05 11:38:46;;;;;;;3.25;2.92;;;;;;;36.27;36.11;98850.91;3780570;92;21091;-87
2022/08/05 11:44:49;;;;;;;3.02;2.72;;;;;;;36.23;35.51;98855.52;3771934;92;21685;-88
2022/08/05 11:50:50;;;;;;;4.22;2.60;;;;;;;35.95;35.35;98853.19;3766143;92;21032;-88
2022/08/05 11:56:54;;;;;;;2.83;2.30;;;;;;;35.98;35.85;98854.27;3778624;91;21043;-87
2022/08/05 12:02:56;;;;;;;3.73;2.53;;;;;;;35.76;34.93;98853.30;3798555;91;21066;-88
2022/08/05 12:09:04;;;;;;;3.90;2.67;;;;;;;35.34;34.34;98848.72;3796244;91;21085;-88
2022/08/05 12:15:06;;;;;;;3.27;2.90;;;;;;;34.57;33.94;98840.91;3892405;89;21057;-89
2022/08/05 12:21:17;;;;;;;5.28;2.90;;;;;;;33.95;34.44;98839.53;3896536;89;21696;-87
2022/08/05 12:27:24;;;;;;;2.85;2.62;;;;;;;33.59;34.34;98834.56;3883595;89;21061;-88
2022/08/05 12:33:27;;;;;;;3.25;2.92;;;;;;;33.44;35.39;98826.48;3887019;89;21104;-87
2022/08/05 12:39:28;;;;;;;4.60;2.70;;;;;;;33.01;35.45;98832.12;3881549;89;21061;-87
2022/08/05 12:45:30;;;;;;;3.35;2.72;;;;;;;32.81;35.90;98832.52;3872513;89;21112;-88
2022/08/05 12:51:49;;;;;;;4.47;2.95;;;;;;;32.69;36.56;98826.84;3895756;89;21613;-87
2022/08/05 12:57:55;;;;;;;8.33;2.77;;;;;;;32.39;35.80;98818.98;3902225;88;21113;-88
2022/08/05 13:03:56;;;;;;;3.85;2.75;;;;;;;32.16;36.34;98817.59;3937680;88;21048;-86
2022/08/05 13:10:15;;;;;;;7.70;3.08;;;;;;;31.99;36.43;98822.60;3932910;88;21082;-88
2022/08/05 13:16:19;;;;;;;4.37;3.20;;;;;;;31.76;36.19;98814.84;3938483;88;21083;-88
2022/08/05 13:22:22;;;;;;;4.10;2.80;;;;;;;31.67;36.63;98812.97;3962705;88;21016;-87
2022/08/05 13:28:23;;;;;;;3.25;2.58;;;;;;;31.60;36.96;98806.45;3936526;88;22057;-87
2022/08/05 13:34:25;;;;;;;3.92;3.12;;;;;;;31.46;37.30;98797.02;3932497;88;21036;-87
2022/08/05 13:40:27;;;;;;;4.45;3.00;;;;;;;31.28;38.03;98800.39;3943110;88;21976;-87
2022/08/05 13:46:31;;;;;;;4.92;2.98;;;;;;;31.22;37.96;98796.03;3939732;88;21067;-87
2022/08/05 13:52:33;;;;;;;3.93;3.30;;;;;;;31.19;39.03;98796.44;3934545;88;21100;-88
2022/08/05 13:58:35;;;;;;;3.60;2.90;;;;;;;31.16;38.32;98789.00;3937768;88;21081;-85
2022/08/05 14:11:01;;;;;;;3.70;3.30;;;;;;;31.02;39.38;98784.42;3941116;88;21375;-88
2022/08/05 14:17:05;;;;;;;4.87;3.15;;;;;;;30.98;39.70;98777.50;3948923;88;21212;-87
2022/08/05 14:23:07;;;;;;;5.25;2.92;;;;;;;30.97;39.91;98776.72;3940418;88;21083;-87
2022/08/05 14:29:09;;;;;;;3.98;3.15;;;;;;;30.79;40.08;98769.45;3921757;88;21599;-87
2022/08/05 14:35:11;;;;;;;3.60;2.77;;;;;;;30.73;40.55;98767.25;3943211;88;21126;-86
2022/08/05 14:41:12;;;;;;;3.25;2.95;;;;;;;30.72;40.74;98763.65;3940592;88;21176;-88
2022/08/05 14:47:13;;;;;;;3.85;3.10;;;;;;;30.68;41.11;98759.55;3944225;88;21087;-87
2022/08/05 14:53:15;;;;;;;5.83;3.37;;;;;;;30.63;41.37;98764.56;3937137;88;21115;-88
2022/08/05 14:59:17;;;;;;;3.50;3.08;;;;;;;30.62;41.09;98760.21;3903559;88;21101;-87
2022/08/05 15:05:18;;;;;;;5.17;3.37;;;;;;;30.58;41.02;98761.88;3884027;89;21133;-87
2022/08/05 15:11:19;;;;;;;5.03;3.17;;;;;;;30.55;41.06;98755.19;3885462;89;21069;-87
2022/08/05 15:17:21;;;;;;;3.45;3.15;;;;;;;30.45;41.46;98755.98;3882200;89;21077;-87
2022/08/05 15:23:22;;;;;;;3.33;3.02;;;;;;;30.34;41.60;98751.75;3860346;90;21148;-87
2022/08/05 15:29:23;;;;;;;5.00;3.08;;;;;;;30.26;41.77;98745.86;3859790;90;21058;-85
2022/08/05 15:35:26;;;;;;;5.50;3.25;;;;;;;30.21;41.76;98739.56;3867091;90;21176;-87
2022/08/05 15:41:27;;;;;;;4.45;3.22;;;;;;;30.14;42.27;98736.46;3863828;90;21073;-87
2022/08/05 15:47:29;;;;;;;4.33;2.98;;;;;;;30.06;42.56;98729.78;3870944;90;21204;-87
2022/08/05 15:53:30;;;;;;;4.58;3.20;;;;;;;30.01;42.54;98734.15;3856537;90;21116;-88
2022/08/05 15:59:32;;;;;;;5.97;3.80;;;;;;;29.93;42.49;98733.11;3896617;88;21088;-87
2022/08/05 16:05:33;;;;;;;5.90;3.00;;;;;;;29.86;42.83;98733.64;3939409;88;22286;-86
2022/08/05 16:11:37;;;;;;;5.45;3.00;;;;;;;29.76;43.15;98732.96;3944953;88;21095;-88
2022/08/05 16:17:39;;;;;;;3.70;3.08;;;;;;;29.68;42.92;98727.06;3935060;88;21567;-87
2022/08/05 16:23:40;;;;;;;5.83;3.33;;;;;;;29.67;42.59;98724.12;3939466;88;21105;-87
2022/08/05 16:29:42;;;;;;;4.92;3.70;;;;;;;29.62;42.67;98729.08;3944486;88;21527;-88
2022/08/05 16:35:43;;;;;;;5.42;3.05;;;;;;;29.50;42.79;98724.70;3943617;88;21088;-87
2022/08/05 16:41:44;;;;;;;4.50;3.10;;;;;;;29.34;43.05;98728.23;3935183;88;21071;-87
2022/08/05 16:47:46;;;;;;;4.75;3.05;;;;;;;29.25;43.46;98721.42;3943577;88;21786;-88
2022/08/05 16:53:47;;;;;;;5.10;3.22;;;;;;;29.15;43.51;98722.91;3827637;88;10000364;-87
2022/08/05 16:59:50;;;;;;;4.17;3.77;;;;;;;29.05;43.70;98726.55;3893602;88;22096;-87
2022/08/05 17:05:52;;;;;;;5.55;3.72;;;;;;;28.97;44.14;98727.56;3858246;90;21114;-87
2022/08/05 17:11:53;;;;;;;6.22;4.08;;;;;;;28.84;44.84;98733.64;3861356;90;21041;-87
2022/08/05 17:17:54;;;;;;;4.22;3.62;;;;;;;28.71;45.59;98730.48;3866418;90;21018;-87
2022/08/05 17:23:55;;;;;;;5.83;4.00;;;;;;;28.57;46.26;98736.28;3855969;90;21888;-87
2022/08/05 17:29:57;;;;;;;6.15;4.50;;;;;;;28.43;46.99;98737.19;3862189;90;21189;-87
2022/08/05 17:35:58;;;;;;;9.88;4.45;;;;;;;28.29;47.78;98736.70;3860040;90;21932;-87
2022/08/05 17:42:00;;;;;;;73.65;23.80;;;;;;;28.12;48.54;98743.62;3882839;90;21516;-86
2022/08/05 17:48:04;;;;;;;22.80;9.80;;;;;;;27.93;49.50;98736.80;3847078;90;21673;-86
2022/08/05 17:54:06;;;;;;;8.43;5.42;;;;;;;27.77;50.42;98739.44;3850919;90;21136;-87
2022/08/05 18:00:09;;;;;;;11.88;7.15;;;;;;;27.53;50.99;98738.30;3900216;88;21128;-87
2022/08/05 18:06:10;;;;;;;16.35;8.15;;;;;;;27.27;51.75;98738.27;3941202;88;21552;-86
2022/08/05 18:12:11;;;;;;;12.33;8.78;;;;;;;27.06;52.45;98734.53;3935847;88;23522;-86
2022/08/05 18:18:13;;;;;;;13.43;11.25;;;;;;;26.77;53.09;98740.26;3941650;88;21024;-87
2022/08/05 18:24:14;;;;;;;17.48;12.47;;;;;;;26.52;53.85;98731.84;3831807;88;10000435;-86
2022/08/05 18:30:15;;;;;;;24.20;17.45;;;;;;;26.29;54.54;98739.80;3946194;88;21051;-86
2022/08/05 18:36:17;;;;;;;27.45;19.75;;;;;;;26.03;55.13;98745.23;3939292;88;21084;-87
2022/08/05 18:42:18;;;;;;;29.05;21.25;;;;;;;25.82;55.66;98740.00;3940687;88;22205;-87
2022/08/05 18:48:19;;;;;;;28.87;19.85;;;;;;;25.59;56.55;98743.67;3941159;88;21164;-87
2022/08/05 18:54:21;;;;;;;21.82;18.10;;;;;;;25.36;56.94;98754.28;3935739;88;21566;-87
2022/08/05 19:00:24;;;;;;;23.87;18.17;;;;;;;25.15;57.33;98759.58;3889696;88;21149;-87
2022/08/05 19:06:25;;;;;;;24.47;18.30;;;;;;;25.03;57.72;98754.98;3852544;90;21177;-88
2022/08/05 19:12:30;;;;;;;22.55;16.12;;;;;;;24.70;59.27;98769.03;3850250;90;21148;-86
2022/08/05 19:18:31;;;;;;;21.97;14.47;;;;;;;24.70;59.27;98769.03;3869344;90;21429;-87
2022/08/05 19:24:32;;;;;;;21.12;14.85;;;;;;;24.56;60.01;98767.69;3856307;90;21102;-87
2022/08/05 19:30:34;;;;;;;14.00;12.00;;;;;;;24.42;60.89;98771.17;3865803;90;21037;-87
2022/08/05 19:36:36;;;;;;;11.85;9.83;;;;;;;24.25;61.88;98765.02;3869104;90;21646;-87
2022/08/05 19:42:38;;;;;;;16.30;10.98;;;;;;;24.02;62.84;98780.50;3875304;90;21063;-87
2022/08/05 19:48:40;;;;;;;11.48;9.33;;;;;;;23.80;63.51;98780.50;3862915;90;21168;-87
2022/08/05 19:54:42;;;;;;;12.20;10.88;;;;;;;23.59;63.96;98782.84;3854607;90;21648;-87
2022/08/05 20:00:43;;;;;;;15.93;10.28;;;;;;;23.54;65.08;98787.69;3896573;88;21067;-87
2022/08/05 20:06:45;;;;;;;15.88;11.45;;;;;;;23.36;65.83;98777.28;3939063;88;21099;-86
2022/08/05 20:12:47;;;;;;;15.80;10.23;;;;;;;23.21;66.47;98773.51;3942982;88;21095;-87
2022/08/05 20:18:48;;;;;;;14.68;11.85;;;;;;;23.02;67.65;98774.75;3937288;88;21556;-87
2022/08/05 20:24:50;;;;;;;14.20;11.65;;;;;;;22.85;68.43;98779.05;3942831;88;21060;-86
2022/08/05 20:30:51;;;;;;;17.37;11.35;;;;;;;22.75;69.25;98781.67;3943910;88;21020;-86
2022/08/05 20:36:52;;;;;;;18.15;13.83;;;;;;;22.68;70.20;98783.34;3943490;88;21135;-87
2022/08/05 20:42:54;;;;;;;17.48;13.25;;;;;;;22.52;70.79;98787.17;3945598;88;21100;-87
2022/08/05 20:48:55;;;;;;;19.60;14.13;;;;;;;22.36;71.46;98785.23;3946080;88;21150;-87
2022/08/05 20:54:56;;;;;;;17.25;13.20;;;;;;;22.30;72.20;98789.86;3940479;88;21148;-88
2022/08/05 21:00:58;;;;;;;16.55;12.65;;;;;;;22.16;72.59;98784.84;3934518;88;21130;-86
2022/08/05 21:06:59;;;;;;;18.07;12.73;;;;;;;22.02;73.36;98781.95;3931728;88;21381;-86
2022/08/05 21:13:00;;;;;;;19.45;14.98;;;;;;;21.89;73.53;98786.07;3945186;88;21112;-85
2022/08/05 21:19:02;;;;;;;17.95;13.70;;;;;;;21.83;74.76;98791.47;3941651;88;22122;-86
2022/08/05 21:25:05;;;;;;;12.95;11.00;;;;;;;21.83;75.41;98793.47;3931959;89;21182;-86
2022/08/05 21:31:06;;;;;;;18.67;11.90;;;;;;;21.71;75.97;98790.88;3926775;89;21715;-86
2022/08/05 21:37:08;;;;;;;19.00;14.13;;;;;;;21.73;76.76;98798.95;3923300;89;21094;-86
2022/08/05 21:43:11;;;;;;;19.70;14.40;;;;;;;21.58;77.00;98796.51;3918022;89;21156;-86
2022/08/05 21:49:12;;;;;;;19.35;13.25;;;;;;;21.48;77.78;98799.08;3924794;89;21100;-87
2022/08/05 21:55:15;;;;;;;21.05;15.45;;;;;;;21.33;77.86;98802.81;3914961;89;21079;-86
2022/08/05 22:01:17;;;;;;;19.95;14.47;;;;;;;21.14;78.75;98806.66;3916749;89;21095;-86
2022/08/05 22:07:18;;;;;;;23.80;15.43;;;;;;;21.04;79.50;98809.97;3929728;89;21056;-86
2022/08/05 22:13:21;;;;;;;19.42;13.48;;;;;;;20.94;79.78;98817.27;3926024;89;21084;-86
2022/08/05 22:19:22;;;;;;;20.68;12.47;;;;;;;20.71;80.30;98814.82;3922321;89;21107;-86
2022/08/05 22:31:44;;;;;;;20.80;17.67;;;;;;;20.52;81.47;98809.66;3922626;89;22117;-86
2022/08/05 22:37:45;;;;;;;16.95;13.18;;;;;;;20.47;81.91;98814.39;3928657;89;21119;-87
2022/08/05 22:43:47;;;;;;;17.55;14.53;;;;;;;20.32;82.33;98809.12;3937885;89;21167;-86
2022/08/05 22:49:48;;;;;;;16.32;14.35;;;;;;;20.16;82.68;98805.04;3930897;89;21051;-87
2022/08/05 22:55:51;;;;;;;16.75;13.40;;;;;;;19.98;83.24;98806.16;3925715;89;21044;-86
2022/08/05 23:01:53;;;;;;;19.42;11.83;;;;;;;19.88;83.95;98805.85;3924654;89;21048;-86
2022/08/05 23:07:54;;;;;;;20.50;14.40;;;;;;;20.02;84.65;98814.56;3927295;89;21162;-87
2022/08/05 23:13:55;;;;;;;16.05;12.88;;;;;;;20.03;84.40;98810.55;3932335;89;21065;-86
2022/08/05 23:19:59;;;;;;;15.85;14.20;;;;;;;19.89;84.98;98810.17;3927871;89;21043;-86
2022/08/05 23:26:00;;;;;;;17.25;14.78;;;;;;;19.68;85.02;98805.25;3922176;89;21140;-86
2022/08/05 23:32:03;;;;;;;18.15;14.93;;;;;;;19.59;85.50;98807.89;3916943;89;21036;-86
2022/08/05 23:38:04;;;;;;;16.12;13.00;;;;;;;19.51;86.05;98803.75;3916845;89;21136;-87
2022/08/05 23:44:05;;;;;;;17.55;14.10;;;;;;;19.54;86.48;98800.09;3919364;89;21188;-86
2022/08/05 23:50:07;;;;;;;17.75;14.03;;;;;;;19.42;86.58;98794.66;3926319;89;21498;-86
2022/08/05 23:56:08;;;;;;;17.20;12.40;;;;;;;19.35;87.03;98797.64;3923810;89;21048;-87
